createdAt,value
2022-12-13T00:01:16.117Z,23.15
2022-12-13T00:03:43.681Z,23.75
2022-12-13T00:06:12.094Z,24.08
2022-12-13T00:08:39.431Z,25.50
2022-12-13T00:11:08.475Z,23.52
2022-12-13T00:13:34.890Z,24.17
2022-12-13T00:16:05.404Z,24.92
2022-12-13T00:18:32.886Z,24.73
2022-12-13T00:20:59.916Z,24.42
2022-12-13T00:23:28.550Z,25.25
2022-12-13T00:25:54.938Z,24.35
2022-12-13T00:28:21.319Z,25.70
2022-12-13T00:30:47.801Z,23.50
2022-12-13T00:33:14.211Z,23.95
2022-12-13T00:35:41.622Z,25.33
2022-12-13T00:38:10.163Z,25.83
2022-12-13T00:40:36.572Z,23.73
2022-12-13T00:43:02.982Z,24.00
2022-12-13T00:45:29.357Z,23.95
2022-12-13T00:47:55.733Z,24.98
2022-12-13T00:50:25.243Z,26.17
2022-12-13T00:52:51.641Z,24.65
2022-12-13T00:55:18.194Z,25.42
2022-12-13T00:57:44.616Z,24.40
2022-12-13T01:00:11.985Z,23.65
2022-12-13T01:02:38.537Z,25.13
2022-12-13T01:05:05.079Z,25.40
2022-12-13T01:07:31.456Z,25.30
2022-12-13T01:09:58.444Z,24.63
2022-12-13T01:12:24.867Z,25.65
2022-12-13T01:14:55.888Z,23.95
2022-12-13T01:17:22.567Z,24.35
2022-12-13T01:19:48.958Z,25.50
2022-12-13T01:22:15.401Z,24.20
2022-12-13T01:24:44.696Z,24.33
2022-12-13T01:27:11.122Z,23.17
2022-12-13T01:29:37.642Z,23.65
2022-12-13T01:32:04.183Z,24.33
2022-12-13T01:34:30.569Z,25.42
2022-12-13T01:36:58.045Z,24.08
2022-12-13T01:39:26.530Z,25.05
2022-12-13T01:41:59.829Z,25.45
2022-12-13T01:45:03.853Z,25.00
2022-12-13T01:48:00.924Z,24.85
2022-12-13T01:50:34.617Z,24.35
2022-12-13T01:53:01.773Z,25.92
2022-12-13T01:55:32.017Z,26.20
2022-12-13T01:58:02.798Z,25.07
2022-12-13T02:00:29.645Z,24.90
2022-12-13T02:02:59.497Z,27.67
2022-12-13T02:05:34.445Z,25.00
2022-12-13T02:08:02.903Z,24.77
2022-12-13T02:10:30.905Z,25.38
2022-12-13T02:12:58.773Z,25.20
2022-12-13T02:15:30.150Z,26.38
2022-12-13T02:17:59.230Z,24.70
2022-12-13T02:38:13.185Z,21.75
2022-12-13T02:40:54.218Z,21.90
2022-12-13T02:43:34.816Z,22.35
2022-12-13T02:46:03.419Z,23.67
2022-12-13T02:48:34.478Z,22.88
2022-12-13T02:51:05.099Z,21.88
2022-12-13T02:53:33.932Z,23.13
2022-12-13T02:56:00.647Z,25.00
2022-12-13T02:58:31.700Z,22.52
2022-12-13T03:01:29.208Z,21.48
2022-12-13T03:04:29.797Z,21.45
2022-12-13T03:07:07.204Z,21.98
2022-12-13T03:09:46.688Z,22.60
2022-12-13T03:12:42.288Z,22.45
2022-12-13T03:15:29.406Z,22.42
2022-12-13T03:18:16.909Z,22.63
2022-12-13T03:20:57.323Z,22.23
2022-12-13T03:23:25.292Z,22.65
2022-12-13T03:26:17.367Z,21.80
2022-12-13T03:28:44.095Z,21.05
2022-12-13T03:31:10.877Z,23.52
2022-12-13T03:33:38.794Z,22.88
2022-12-13T03:36:06.030Z,22.40
2022-12-13T03:38:32.656Z,21.95
2022-12-13T03:41:05.416Z,23.55
2022-12-13T03:43:32.112Z,23.35
2022-12-13T03:46:01.171Z,23.80
2022-12-13T03:48:27.706Z,23.15
2022-12-13T03:50:54.826Z,24.10
2022-12-13T03:53:33.884Z,25.02
2022-12-13T03:56:04.107Z,22.87
2022-12-13T03:58:36.616Z,23.52
2022-12-13T04:01:08.857Z,22.58
2022-12-13T04:03:36.524Z,24.10
2022-12-13T04:06:03.827Z,24.77
2022-12-13T04:08:30.494Z,22.30
2022-12-13T04:10:56.934Z,22.63
2022-12-13T04:13:35.229Z,23.20
2022-12-13T04:16:02.393Z,23.50
2022-12-13T04:18:29.094Z,23.70
2022-12-13T04:20:55.518Z,22.60
2022-12-13T04:23:21.908Z,23.00
2022-12-13T04:25:48.410Z,24.08
2022-12-13T04:28:21.760Z,23.33
2022-12-13T04:30:52.812Z,22.83
2022-12-13T04:35:48.343Z,21.95
2022-12-13T04:38:15.470Z,21.98
2022-12-13T04:40:41.864Z,21.10
2022-12-13T04:43:08.265Z,22.05
2022-12-13T04:45:34.839Z,20.80
2022-12-13T04:48:01.325Z,20.75
2022-12-13T04:50:27.746Z,22.05
2022-12-13T04:52:54.137Z,20.33
2022-12-13T04:55:20.574Z,22.40
2022-12-13T04:57:46.962Z,20.70
2022-12-13T05:00:14.266Z,21.48
2022-12-13T05:02:43.592Z,20.63
2022-12-13T05:05:10.958Z,20.73
2022-12-13T05:07:42.581Z,22.63
2022-12-13T05:10:10.520Z,21.88
2022-12-13T05:12:36.948Z,22.73
2022-12-13T05:15:03.676Z,24.25
2022-12-13T05:17:30.118Z,22.48
2022-12-13T05:19:56.521Z,23.00
2022-12-13T05:22:23.083Z,22.77
2022-12-13T05:24:49.570Z,23.33
2022-12-13T05:27:24.771Z,22.13
2022-12-13T05:30:02.705Z,23.73
2022-12-13T05:32:42.673Z,21.92
2022-12-13T05:35:11.661Z,22.83
2022-12-13T05:37:38.074Z,21.60
2022-12-13T05:40:05.391Z,23.27
2022-12-13T05:42:31.826Z,24.05
2022-12-13T05:44:58.274Z,22.58
2022-12-13T05:47:24.697Z,23.80
2022-12-13T05:49:52.104Z,23.08
2022-12-13T05:52:20.108Z,23.48
2022-12-13T05:54:46.514Z,24.65
2022-12-13T05:57:13.214Z,25.25
2022-12-13T05:59:39.601Z,24.45
2022-12-13T06:02:06.125Z,26.70
2022-12-13T06:04:32.784Z,24.05
2022-12-13T06:06:59.229Z,25.73
2022-12-13T06:09:25.681Z,24.02
2022-12-13T06:11:52.568Z,26.13
2022-12-13T06:14:28.034Z,24.88
2022-12-13T06:16:54.515Z,25.35
2022-12-13T06:19:22.261Z,26.00
2022-12-13T06:21:53.016Z,25.02
2022-12-13T06:24:21.484Z,24.30
2022-12-13T06:26:49.694Z,25.33
2022-12-13T06:29:24.494Z,27.25
2022-12-13T06:32:01.382Z,27.83
2022-12-13T06:34:32.275Z,27.05
2022-12-13T06:36:58.689Z,25.98
2022-12-13T06:39:32.508Z,26.05
2022-12-13T06:42:00.642Z,26.67
2022-12-13T06:44:27.034Z,27.58
2022-12-13T06:47:12.093Z,26.67
2022-12-13T06:49:40.528Z,27.48
2022-12-13T06:52:11.676Z,26.98
2022-12-13T06:54:38.073Z,26.15
2022-12-13T06:57:04.490Z,25.70
2022-12-13T06:59:30.882Z,26.25
2022-12-13T07:02:03.705Z,26.70
2022-12-13T07:04:31.548Z,25.88
2022-12-13T07:07:01.321Z,27.75
2022-12-13T07:09:30.834Z,27.80
2022-12-13T07:12:00.342Z,26.35
2022-12-13T07:14:26.984Z,26.25
2022-12-13T07:16:57.935Z,27.15
2022-12-13T07:19:35.317Z,27.20
2022-12-13T07:22:05.649Z,27.00
2022-12-13T07:24:32.228Z,28.00
2022-12-13T07:26:58.616Z,31.02
2022-12-13T07:29:25.018Z,27.20
2022-12-13T07:31:51.418Z,27.05
2022-12-13T07:34:17.900Z,28.08
2022-12-13T07:36:50.919Z,29.08
2022-12-13T07:39:17.345Z,28.65
2022-12-13T07:41:43.754Z,28.08
2022-12-13T07:44:10.860Z,28.45
2022-12-13T07:46:37.350Z,28.90
2022-12-13T07:49:05.198Z,26.30
2022-12-13T07:51:36.269Z,26.42
2022-12-13T07:54:06.744Z,27.35
2022-12-13T07:56:34.078Z,25.65
2022-12-13T07:59:00.453Z,28.80
2022-12-13T08:01:35.157Z,27.60
2022-12-13T08:04:02.593Z,28.38
2022-12-13T08:06:30.838Z,25.98
2022-12-13T08:08:57.772Z,27.27
2022-12-13T08:11:24.523Z,26.17
2022-12-13T08:13:51.056Z,26.10
2022-12-13T08:16:26.272Z,26.35
2022-12-13T08:19:01.874Z,26.17
2022-12-13T08:24:20.375Z,27.10
2022-12-13T08:26:46.771Z,26.73
2022-12-13T08:29:13.402Z,26.58
2022-12-13T08:31:50.137Z,26.65
2022-12-13T08:34:16.561Z,27.85
2022-12-13T08:36:42.996Z,26.17
2022-12-13T08:39:09.431Z,25.98
2022-12-13T08:41:39.112Z,26.10
2022-12-13T08:44:05.982Z,26.98
2022-12-13T08:46:33.651Z,25.30
2022-12-13T08:49:00.187Z,25.40
2022-12-13T08:51:32.270Z,24.58
2022-12-13T08:54:11.029Z,25.80
2022-12-13T08:56:38.140Z,25.55
2022-12-13T08:59:04.578Z,25.80
2022-12-13T09:01:31.135Z,22.70
2022-12-13T09:03:57.516Z,25.60
2022-12-13T09:06:24.162Z,24.58
2022-12-13T09:08:53.305Z,24.30
2022-12-13T09:11:32.865Z,24.52
2022-12-13T09:14:03.069Z,24.50
2022-12-13T09:16:35.535Z,25.45
2022-12-13T09:19:25.360Z,24.52
2022-12-13T09:21:50.956Z,23.50
2022-12-13T09:24:24.195Z,22.70
2022-12-13T09:26:57.353Z,24.85
2022-12-13T09:29:23.999Z,23.50
2022-12-13T09:31:53.316Z,24.45
2022-12-13T09:34:20.138Z,24.85
2022-12-13T09:36:46.623Z,24.55
2022-12-13T09:39:13.185Z,21.08
2022-12-13T09:41:50.415Z,21.33
2022-12-13T09:44:32.446Z,21.42
2022-12-13T09:47:15.947Z,21.55
2022-12-13T09:52:21.784Z,21.30
2022-12-13T09:54:53.683Z,22.02
2022-12-13T09:57:31.974Z,22.83
2022-12-13T10:00:02.424Z,22.80
2022-12-13T10:02:43.839Z,21.20
2022-12-13T10:05:34.338Z,22.80
2022-12-13T10:08:16.662Z,23.15
2022-12-13T10:10:43.962Z,22.13
2022-12-13T10:13:25.722Z,19.83
2022-12-13T10:16:03.777Z,20.35
2022-12-13T10:18:36.168Z,20.35
2022-12-13T10:21:07.727Z,21.52
2022-12-13T10:23:52.901Z,20.65
2022-12-13T10:26:24.145Z,22.75
2022-12-13T10:29:01.763Z,20.15
2022-12-13T10:31:28.289Z,18.30
2022-12-13T10:33:57.050Z,19.88
2022-12-13T10:36:38.378Z,20.13
2022-12-13T10:39:04.991Z,20.25
2022-12-13T10:41:39.064Z,20.38
2022-12-13T10:44:11.590Z,19.10
2022-12-13T10:46:50.367Z,19.58
2022-12-13T10:49:24.035Z,18.95
2022-12-13T10:51:53.712Z,20.77
2022-12-13T10:54:38.959Z,19.58
2022-12-13T10:57:16.467Z,19.05
2022-12-13T10:59:45.477Z,19.25
2022-12-13T11:02:30.436Z,18.08
2022-12-13T11:04:58.243Z,19.88
2022-12-13T11:07:30.609Z,18.40
2022-12-13T11:10:04.889Z,17.38
2022-12-13T11:12:33.000Z,19.48
2022-12-13T11:15:02.378Z,18.63
2022-12-13T11:17:31.473Z,19.40
2022-12-13T11:20:02.322Z,19.48
2022-12-13T11:22:31.162Z,20.13
2022-12-13T11:25:25.735Z,20.67
2022-12-13T11:28:25.794Z,18.23
2022-12-13T11:31:16.012Z,18.33
2022-12-13T11:33:56.166Z,20.33
2022-12-13T11:36:44.364Z,14.73
2022-12-13T11:39:39.620Z,19.23
2022-12-13T11:42:18.082Z,18.08
2022-12-13T11:45:06.355Z,18.85
2022-12-13T11:47:43.935Z,18.33
2022-12-13T11:50:33.872Z,19.05
2022-12-13T11:53:18.971Z,17.40
2022-12-13T11:55:54.013Z,18.52
2022-12-13T12:01:39.207Z,18.00
2022-12-13T12:04:43.795Z,17.75
2022-12-13T12:07:32.258Z,18.42
2022-12-13T12:10:04.494Z,20.77
2022-12-13T12:12:36.117Z,18.27
2022-12-13T12:15:16.767Z,19.50
2022-12-13T12:17:47.243Z,20.30
2022-12-13T12:20:23.478Z,19.33
2022-12-13T12:23:49.642Z,21.00
2022-12-13T12:26:24.358Z,17.85
2022-12-13T12:29:10.660Z,18.83
2022-12-13T12:32:16.338Z,19.27
2022-12-13T12:35:16.323Z,20.88
2022-12-13T12:37:54.601Z,19.88
2022-12-13T12:41:15.090Z,20.50
2022-12-13T12:43:39.471Z,18.73
2022-12-13T12:47:08.609Z,19.13
2022-12-13T12:49:57.385Z,18.30
2022-12-13T12:52:48.228Z,20.00
2022-12-13T12:55:35.201Z,19.25
2022-12-13T12:58:15.413Z,18.52
2022-12-13T13:01:03.292Z,18.77
2022-12-13T13:03:32.464Z,19.80
2022-12-13T13:06:14.586Z,18.65
2022-12-13T13:08:56.458Z,18.48
2022-12-13T13:11:25.904Z,19.42
2022-12-13T13:14:02.293Z,19.10
2022-12-13T13:16:34.706Z,18.60
2022-12-13T13:19:16.454Z,19.42
2022-12-13T13:21:50.507Z,17.63
2022-12-13T13:24:29.158Z,18.08
2022-12-13T13:27:08.741Z,18.30
2022-12-13T13:29:37.716Z,18.38
2022-12-13T13:32:12.571Z,18.80
2022-12-13T13:35:15.634Z,18.38
2022-12-13T13:37:47.826Z,19.27
2022-12-13T13:40:31.380Z,18.25
2022-12-13T13:43:10.387Z,17.77
2022-12-13T13:45:48.987Z,18.42
2022-12-13T13:48:43.454Z,18.38
2022-12-13T13:51:49.425Z,18.00
2022-12-13T13:54:33.125Z,18.30
2022-12-13T13:58:08.453Z,17.80
2022-12-13T14:00:44.608Z,17.37
2022-12-13T14:03:53.468Z,14.18
2022-12-13T14:07:01.029Z,15.77
2022-12-13T14:09:49.512Z,15.27
2022-12-13T14:12:38.065Z,15.68
2022-12-13T14:15:49.219Z,14.88
2022-12-13T14:19:01.209Z,16.52
2022-12-13T14:21:31.698Z,17.70
2022-12-13T14:24:29.977Z,11.77
2022-12-13T14:27:16.578Z,15.82
2022-12-13T14:29:57.928Z,16.83
2022-12-13T14:32:28.366Z,15.27
2022-12-13T14:34:59.329Z,15.52
2022-12-13T14:37:57.874Z,16.38
2022-12-13T14:40:35.603Z,16.33
2022-12-13T14:43:02.974Z,17.23
2022-12-13T14:45:38.958Z,15.52
2022-12-13T14:48:15.324Z,15.32
2022-12-13T14:50:44.487Z,15.82
2022-12-13T14:53:34.052Z,15.10
2022-12-13T14:56:28.484Z,17.00
2022-12-13T14:59:08.119Z,15.57
2022-12-13T15:01:37.101Z,16.55
2022-12-13T15:04:24.951Z,16.85
2022-12-13T15:07:02.586Z,17.92
2022-12-13T15:09:29.964Z,18.38
2022-12-13T15:12:15.078Z,17.58
2022-12-13T15:14:53.565Z,16.80
2022-12-13T15:17:37.578Z,16.17
2022-12-13T15:20:28.659Z,15.80
2022-12-13T15:23:06.107Z,16.45
2022-12-13T15:25:35.253Z,14.73
2022-12-13T15:28:01.727Z,15.35
2022-12-13T15:30:34.517Z,16.65
2022-12-13T15:33:15.885Z,16.77
2022-12-13T15:35:42.593Z,15.82
2022-12-13T15:38:28.804Z,16.00
2022-12-13T15:40:56.144Z,15.68
2022-12-13T15:43:32.465Z,15.30
2022-12-13T15:45:59.821Z,15.43
2022-12-13T15:48:33.938Z,15.20
2022-12-13T15:51:29.564Z,13.75
2022-12-13T15:54:19.184Z,15.50
2022-12-13T15:57:22.867Z,15.82
2022-12-13T16:00:31.365Z,15.13
2022-12-13T16:03:11.108Z,15.73
2022-12-13T16:05:45.324Z,15.13
2022-12-13T16:08:29.529Z,15.35
2022-12-13T16:10:58.183Z,14.65
2022-12-13T16:13:27.945Z,16.35
2022-12-13T16:16:09.642Z,16.33
2022-12-13T16:18:45.401Z,14.85
2022-12-13T16:21:11.963Z,15.98
2022-12-13T16:23:38.369Z,15.18
2022-12-13T16:26:08.952Z,15.10
2022-12-13T16:28:35.747Z,16.63
2022-12-13T16:31:12.033Z,13.93
2022-12-13T16:33:44.804Z,15.02
2022-12-13T16:36:11.922Z,15.68
2022-12-13T16:38:39.020Z,15.77
2022-12-13T16:41:08.797Z,15.10
2022-12-13T16:43:49.879Z,15.35
2022-12-13T16:47:14.784Z,15.00
2022-12-13T16:49:16.677Z,15.07
2022-12-13T16:51:48.035Z,11.50
2022-12-13T16:54:35.707Z,13.93
2022-12-13T16:57:02.181Z,16.30
2022-12-13T16:59:28.861Z,13.82
2022-12-13T17:01:55.290Z,17.42
2022-12-13T17:04:23.688Z,17.05
2022-12-13T17:06:54.775Z,17.48
2022-12-13T17:09:22.426Z,19.20
2022-12-13T17:11:49.044Z,17.92
2022-12-13T17:14:15.551Z,18.40
2022-12-13T17:16:42.063Z,18.33
2022-12-13T17:19:10.319Z,17.05
2022-12-13T17:21:37.068Z,17.67
2022-12-13T17:24:03.615Z,19.20
2022-12-13T17:26:30.156Z,18.92
2022-12-13T17:28:59.171Z,19.05
2022-12-13T17:31:34.955Z,19.15
2022-12-13T17:34:02.731Z,19.67
2022-12-13T17:36:31.230Z,20.75
2022-12-13T17:38:57.913Z,21.83
2022-12-13T17:41:24.545Z,24.50
2022-12-13T17:43:50.932Z,25.27
2022-12-13T17:46:18.929Z,23.33
2022-12-13T17:48:48.261Z,26.63
2022-12-13T17:51:14.839Z,24.77
2022-12-13T17:53:43.685Z,31.88
2022-12-13T17:56:12.552Z,34.28
2022-12-13T17:58:40.026Z,28.13
2022-12-13T18:01:18.022Z,28.42
2022-12-13T18:03:44.841Z,27.80
2022-12-13T18:06:11.869Z,25.23
2022-12-13T18:08:39.507Z,25.23
2022-12-13T18:13:55.306Z,32.45
2022-12-13T18:16:23.541Z,30.25
2022-12-13T18:18:55.491Z,31.45
2022-12-13T18:21:29.692Z,28.48
2022-12-13T18:23:56.361Z,24.45
2022-12-13T18:26:25.985Z,29.17
2022-12-13T18:28:52.418Z,31.20
2022-12-13T18:31:23.159Z,30.15
2022-12-13T18:33:51.574Z,29.92
2022-12-13T18:36:20.045Z,29.67
2022-12-13T18:38:47.916Z,28.38
2022-12-13T18:41:17.742Z,25.95
2022-12-13T18:43:47.559Z,26.45
2022-12-13T18:46:15.193Z,24.80
2022-12-13T18:48:41.855Z,26.55
2022-12-13T18:51:09.854Z,25.88
2022-12-13T18:53:37.457Z,25.30
2022-12-13T18:56:08.212Z,25.75
2022-12-13T18:58:38.092Z,24.33
2022-12-13T19:01:05.159Z,25.02
2022-12-13T19:03:32.228Z,26.52
2022-12-13T19:06:00.093Z,28.40
2022-12-13T19:08:28.321Z,28.80
2022-12-13T19:10:59.359Z,28.40
2022-12-13T19:15:57.008Z,26.48
2022-12-13T19:18:23.602Z,28.75
2022-12-13T19:20:53.556Z,29.60
2022-12-13T19:23:20.862Z,33.65
2022-12-13T19:25:48.489Z,32.78
2022-12-13T19:28:17.354Z,36.83
2022-12-13T19:30:46.127Z,37.15
2022-12-13T19:33:13.349Z,37.38
2022-12-13T19:35:41.812Z,38.40
2022-12-13T19:38:08.804Z,39.75
2022-12-13T19:40:38.910Z,38.53
2022-12-13T19:43:11.304Z,37.25
2022-12-13T19:45:37.982Z,36.95
2022-12-13T19:48:04.842Z,37.95
2022-12-13T19:50:31.232Z,38.63
2022-12-13T19:52:57.622Z,38.13
2022-12-13T19:55:24.015Z,37.28
2022-12-13T19:57:50.580Z,37.50
2022-12-13T20:00:17.330Z,39.47
2022-12-13T20:02:43.781Z,38.58
2022-12-13T20:05:10.218Z,35.47
2022-12-13T20:07:36.613Z,38.65
2022-12-13T20:10:06.390Z,39.90
2022-12-13T20:12:38.763Z,40.10
2022-12-13T20:15:11.111Z,38.05
2022-12-13T20:17:37.533Z,38.75
2022-12-13T20:20:04.730Z,37.85
2022-12-13T20:22:32.473Z,38.10
2022-12-13T20:25:01.784Z,38.17
2022-12-13T20:27:31.100Z,37.30
2022-12-13T20:29:58.741Z,36.17
2022-12-13T20:32:27.824Z,35.72
2022-12-13T20:34:55.095Z,38.80
2022-12-13T20:37:23.942Z,37.17
2022-12-13T20:39:53.034Z,37.22
2022-12-13T20:42:19.421Z,39.13
2022-12-13T20:44:45.886Z,35.55
2022-12-13T20:47:12.328Z,34.45
2022-12-13T20:49:38.807Z,36.78
2022-12-13T20:52:05.511Z,36.75
2022-12-13T20:54:31.897Z,35.63
2022-12-13T20:56:58.288Z,35.38
2022-12-13T20:59:24.670Z,34.72
2022-12-13T21:01:51.163Z,34.03
2022-12-13T21:04:17.987Z,35.72
2022-12-13T21:06:44.444Z,34.78
2022-12-13T21:09:11.424Z,35.40
2022-12-13T21:11:43.874Z,36.58
2022-12-13T21:14:21.347Z,32.83
2022-12-13T21:16:55.503Z,32.20
2022-12-13T21:19:36.118Z,31.45
2022-12-13T21:22:06.214Z,28.75
2022-12-13T21:24:32.633Z,28.58
2022-12-13T21:26:59.872Z,27.63
2022-12-13T21:29:26.363Z,26.83
2022-12-13T21:31:56.048Z,26.92
2022-12-13T21:34:22.661Z,27.08
2022-12-13T21:36:52.131Z,25.85
2022-12-13T21:39:24.149Z,27.45
2022-12-13T21:41:51.006Z,25.50
2022-12-13T21:44:18.178Z,24.58
2022-12-13T21:47:11.264Z,26.33
2022-12-13T21:49:31.621Z,26.17
2022-12-13T21:51:58.058Z,23.55
2022-12-13T21:54:24.571Z,24.25
2022-12-13T21:57:09.673Z,24.40
2022-12-13T21:59:38.774Z,25.30
2022-12-13T22:02:18.092Z,25.35
2022-12-13T22:04:53.196Z,24.40
2022-12-13T22:07:25.292Z,23.58
2022-12-13T22:10:02.531Z,22.73
2022-12-13T22:12:35.004Z,23.23
2022-12-13T22:15:02.214Z,23.52
2022-12-13T22:17:35.205Z,25.25
2022-12-13T22:20:08.262Z,24.90
2022-12-13T22:22:35.043Z,25.33
2022-12-13T22:25:01.636Z,25.33
2022-12-13T22:27:28.077Z,23.45
2022-12-13T22:29:57.401Z,22.48
2022-12-13T22:32:26.966Z,24.17
2022-12-13T22:34:53.473Z,24.33
2022-12-13T22:37:23.001Z,23.08
2022-12-13T22:39:49.893Z,21.08
2022-12-13T22:42:16.287Z,21.85
2022-12-13T22:44:42.966Z,22.05
2022-12-13T22:47:09.423Z,21.92
2022-12-13T22:49:36.834Z,21.40
2022-12-13T22:52:03.254Z,22.15
2022-12-13T22:54:29.647Z,19.98
2022-12-13T22:56:56.038Z,21.77
2022-12-13T22:59:22.430Z,21.60
2022-12-13T23:01:49.986Z,21.30
2022-12-13T23:04:16.535Z,22.45
2022-12-13T23:06:43.096Z,21.25
2022-12-13T23:09:13.906Z,20.10
2022-12-13T23:11:59.318Z,19.48
2022-12-13T23:14:32.895Z,18.08
2022-12-13T23:17:00.327Z,19.95
2022-12-13T23:19:49.724Z,20.67
2022-12-13T23:22:15.452Z,21.10
2022-12-13T23:24:42.581Z,21.50
2022-12-13T23:27:08.972Z,20.35
2022-12-13T23:29:35.413Z,20.88
2022-12-13T23:32:01.944Z,20.52
2022-12-13T23:34:28.365Z,20.17
2022-12-13T23:36:54.749Z,20.98
2022-12-13T23:39:21.145Z,21.27
2022-12-13T23:41:47.541Z,21.90
2022-12-13T23:44:13.917Z,19.63
2022-12-13T23:46:40.320Z,21.00
2022-12-13T23:49:06.784Z,22.30
2022-12-13T23:51:34.351Z,21.23
2022-12-13T23:54:01.031Z,21.20
2022-12-13T23:56:27.421Z,22.88
2022-12-13T23:58:53.794Z,21.23
